sensor_id;sensor_type;location;lat;lon;timestamp;P1;durP1;ratioP1;P2;durP2;ratioP2
11777;SDS011;5946;51.770;8.548;2022-10-23T00:00:33;5.53;;;5.03;;
11777;SDS011;5946;51.770;8.548;2022-10-23T00:02:59;9.07;;;4.90;;
11777;SDS011;5946;51.770;8.548;2022-10-23T00:05:25;8.43;;;5.40;;
11777;SDS011;5946;51.770;8.548;2022-10-23T00:07:52;9.77;;;5.13;;
11777;SDS011;5946;51.770;8.548;2022-10-23T00:10:21;8.10;;;4.87;;
11777;SDS011;5946;51.770;8.548;2022-10-23T00:12:48;8.50;;;5.90;;
11777;SDS011;5946;51.770;8.548;2022-10-23T00:15:15;11.67;;;6.87;;
11777;SDS011;5946;51.770;8.548;2022-10-23T00:17:43;11.37;;;6.93;;
11777;SDS011;5946;51.770;8.548;2022-10-23T00:20:08;18.57;;;7.30;;
11777;SDS011;5946;51.770;8.548;2022-10-23T00:22:34;11.20;;;6.37;;
11777;SDS011;5946;51.770;8.548;2022-10-23T00:25:00;11.50;;;5.90;;
11777;SDS011;5946;51.770;8.548;2022-10-23T00:27:25;12.07;;;5.90;;
11777;SDS011;5946;51.770;8.548;2022-10-23T00:29:51;15.67;;;5.60;;
11777;SDS011;5946;51.770;8.548;2022-10-23T00:32:17;9.83;;;5.83;;
11777;SDS011;5946;51.770;8.548;2022-10-23T00:34:42;10.07;;;5.37;;
11777;SDS011;5946;51.770;8.548;2022-10-23T00:37:08;9.63;;;5.17;;
11777;SDS011;5946;51.770;8.548;2022-10-23T00:39:33;7.47;;;5.27;;
11777;SDS011;5946;51.770;8.548;2022-10-23T00:41:59;10.87;;;5.47;;
11777;SDS011;5946;51.770;8.548;2022-10-23T00:46:53;14.07;;;5.73;;
11777;SDS011;5946;51.770;8.548;2022-10-23T00:49:19;13.83;;;6.20;;
11777;SDS011;5946;51.770;8.548;2022-10-23T00:51:48;10.17;;;5.87;;
11777;SDS011;5946;51.770;8.548;2022-10-23T00:54:17;7.93;;;5.13;;
11777;SDS011;5946;51.770;8.548;2022-10-23T00:56:46;9.53;;;5.97;;
11777;SDS011;5946;51.770;8.548;2022-10-23T00:59:12;9.50;;;5.93;;
11777;SDS011;5946;51.770;8.548;2022-10-23T01:01:38;13.03;;;6.07;;
11777;SDS011;5946;51.770;8.548;2022-10-23T01:04:05;10.50;;;5.63;;
11777;SDS011;5946;51.770;8.548;2022-10-23T01:09:05;10.80;;;6.60;;
11777;SDS011;5946;51.770;8.548;2022-10-23T01:11:53;10.93;;;6.57;;
11777;SDS011;5946;51.770;8.548;2022-10-23T01:19:58;15.57;;;7.13;;
11777;SDS011;5946;51.770;8.548;2022-10-23T01:28:11;10.00;;;6.70;;
11777;SDS011;5946;51.770;8.548;2022-10-23T01:30:44;17.13;;;7.97;;
11777;SDS011;5946;51.770;8.548;2022-10-23T01:33:16;13.50;;;6.90;;
11777;SDS011;5946;51.770;8.548;2022-10-23T01:35:51;11.27;;;7.13;;
11777;SDS011;5946;51.770;8.548;2022-10-23T01:38:26;19.13;;;6.43;;
11777;SDS011;5946;51.770;8.548;2022-10-23T01:41:15;9.23;;;6.07;;
11777;SDS011;5946;51.770;8.548;2022-10-23T01:43:54;11.60;;;5.80;;
11777;SDS011;5946;51.770;8.548;2022-10-23T01:46:27;12.23;;;5.73;;
11777;SDS011;5946;51.770;8.548;2022-10-23T01:48:55;7.23;;;5.20;;
11777;SDS011;5946;51.770;8.548;2022-10-23T01:51:23;10.70;;;6.00;;
11777;SDS011;5946;51.770;8.548;2022-10-23T01:53:51;9.40;;;5.70;;
11777;SDS011;5946;51.770;8.548;2022-10-23T01:56:21;10.40;;;5.90;;
11777;SDS011;5946;51.770;8.548;2022-10-23T01:58:51;8.60;;;5.27;;
11777;SDS011;5946;51.770;8.548;2022-10-23T02:01:19;10.47;;;6.17;;
11777;SDS011;5946;51.770;8.548;2022-10-23T02:03:48;9.10;;;5.33;;
11777;SDS011;5946;51.770;8.548;2022-10-23T02:06:15;14.03;;;5.70;;
11777;SDS011;5946;51.770;8.548;2022-10-23T02:08:41;9.00;;;5.30;;
11777;SDS011;5946;51.770;8.548;2022-10-23T02:11:08;8.67;;;5.17;;
11777;SDS011;5946;51.770;8.548;2022-10-23T02:13:44;11.00;;;5.90;;
11777;SDS011;5946;51.770;8.548;2022-10-23T02:16:18;10.77;;;5.30;;
11777;SDS011;5946;51.770;8.548;2022-10-23T02:18:59;8.77;;;4.83;;
11777;SDS011;5946;51.770;8.548;2022-10-23T02:21:31;8.27;;;5.10;;
11777;SDS011;5946;51.770;8.548;2022-10-23T02:24:12;8.03;;;5.10;;
11777;SDS011;5946;51.770;8.548;2022-10-23T02:26:42;10.50;;;5.10;;
11777;SDS011;5946;51.770;8.548;2022-10-23T02:29:34;9.57;;;4.83;;
11777;SDS011;5946;51.770;8.548;2022-10-23T02:32:05;11.50;;;5.07;;
11777;SDS011;5946;51.770;8.548;2022-10-23T02:34:33;9.93;;;4.53;;
11777;SDS011;5946;51.770;8.548;2022-10-23T02:36:59;8.40;;;4.50;;
11777;SDS011;5946;51.770;8.548;2022-10-23T02:39:25;10.93;;;5.10;;
11777;SDS011;5946;51.770;8.548;2022-10-23T02:44:45;10.63;;;5.00;;
11777;SDS011;5946;51.770;8.548;2022-10-23T02:47:29;18.87;;;5.60;;
11777;SDS011;5946;51.770;8.548;2022-10-23T02:50:09;13.23;;;5.30;;
11777;SDS011;5946;51.770;8.548;2022-10-23T02:55:38;14.53;;;5.43;;
11777;SDS011;5946;51.770;8.548;2022-10-23T02:58:19;9.37;;;4.63;;
11777;SDS011;5946;51.770;8.548;2022-10-23T03:01:10;7.63;;;5.17;;
11777;SDS011;5946;51.770;8.548;2022-10-23T03:04:13;12.73;;;5.10;;
11777;SDS011;5946;51.770;8.548;2022-10-23T03:06:33;11.27;;;4.90;;
11777;SDS011;5946;51.770;8.548;2022-10-23T03:09:04;11.07;;;5.40;;
11777;SDS011;5946;51.770;8.548;2022-10-23T03:11:31;10.57;;;5.53;;
11777;SDS011;5946;51.770;8.548;2022-10-23T03:13:56;9.23;;;4.87;;
11777;SDS011;5946;51.770;8.548;2022-10-23T03:16:22;9.37;;;4.93;;
11777;SDS011;5946;51.770;8.548;2022-10-23T03:18:48;11.00;;;5.07;;
11777;SDS011;5946;51.770;8.548;2022-10-23T03:21:14;14.67;;;5.80;;
11777;SDS011;5946;51.770;8.548;2022-10-23T03:23:39;17.97;;;6.30;;
11777;SDS011;5946;51.770;8.548;2022-10-23T03:26:05;15.60;;;5.33;;
11777;SDS011;5946;51.770;8.548;2022-10-23T03:28:30;9.20;;;5.33;;
11777;SDS011;5946;51.770;8.548;2022-10-23T03:30:56;13.33;;;5.50;;
11777;SDS011;5946;51.770;8.548;2022-10-23T03:33:22;9.57;;;5.17;;
11777;SDS011;5946;51.770;8.548;2022-10-23T03:35:48;14.20;;;5.70;;
11777;SDS011;5946;51.770;8.548;2022-10-23T03:38:14;8.53;;;5.10;;
11777;SDS011;5946;51.770;8.548;2022-10-23T03:40:39;13.93;;;5.00;;
11777;SDS011;5946;51.770;8.548;2022-10-23T03:43:06;8.47;;;5.40;;
11777;SDS011;5946;51.770;8.548;2022-10-23T03:45:32;12.30;;;5.03;;
11777;SDS011;5946;51.770;8.548;2022-10-23T03:47:57;11.13;;;4.93;;
11777;SDS011;5946;51.770;8.548;2022-10-23T03:50:23;11.93;;;5.07;;
11777;SDS011;5946;51.770;8.548;2022-10-23T03:52:49;12.27;;;5.60;;
11777;SDS011;5946;51.770;8.548;2022-10-23T03:55:15;12.00;;;5.17;;
11777;SDS011;5946;51.770;8.548;2022-10-23T03:57:41;10.57;;;5.20;;
11777;SDS011;5946;51.770;8.548;2022-10-23T04:00:06;10.93;;;5.57;;
11777;SDS011;5946;51.770;8.548;2022-10-23T04:02:32;13.97;;;5.13;;
11777;SDS011;5946;51.770;8.548;2022-10-23T04:04:58;12.13;;;5.27;;
11777;SDS011;5946;51.770;8.548;2022-10-23T04:07:24;9.60;;;5.40;;
11777;SDS011;5946;51.770;8.548;2022-10-23T04:09:49;10.97;;;5.80;;
11777;SDS011;5946;51.770;8.548;2022-10-23T04:12:15;15.70;;;5.47;;
11777;SDS011;5946;51.770;8.548;2022-10-23T04:14:40;10.90;;;5.13;;
11777;SDS011;5946;51.770;8.548;2022-10-23T04:17:06;10.77;;;5.30;;
11777;SDS011;5946;51.770;8.548;2022-10-23T04:19:31;10.13;;;5.60;;
11777;SDS011;5946;51.770;8.548;2022-10-23T04:21:57;17.03;;;5.83;;
11777;SDS011;5946;51.770;8.548;2022-10-23T04:24:23;10.77;;;4.90;;
11777;SDS011;5946;51.770;8.548;2022-10-23T04:26:49;9.47;;;5.43;;
11777;SDS011;5946;51.770;8.548;2022-10-23T04:29:15;14.37;;;5.87;;
11777;SDS011;5946;51.770;8.548;2022-10-23T04:31:41;11.77;;;5.60;;
11777;SDS011;5946;51.770;8.548;2022-10-23T04:34:07;14.00;;;5.43;;
11777;SDS011;5946;51.770;8.548;2022-10-23T04:36:32;10.83;;;5.47;;
11777;SDS011;5946;51.770;8.548;2022-10-23T04:38:58;13.20;;;5.20;;
11777;SDS011;5946;51.770;8.548;2022-10-23T04:41:24;12.40;;;4.90;;
11777;SDS011;5946;51.770;8.548;2022-10-23T04:43:49;13.13;;;4.87;;
11777;SDS011;5946;51.770;8.548;2022-10-23T04:46:15;14.80;;;5.27;;
11777;SDS011;5946;51.770;8.548;2022-10-23T04:48:40;11.03;;;5.33;;
11777;SDS011;5946;51.770;8.548;2022-10-23T04:51:06;10.87;;;4.97;;
11777;SDS011;5946;51.770;8.548;2022-10-23T04:53:32;14.63;;;5.27;;
11777;SDS011;5946;51.770;8.548;2022-10-23T04:55:58;7.23;;;5.10;;
11777;SDS011;5946;51.770;8.548;2022-10-23T04:58:24;9.37;;;5.37;;
11777;SDS011;5946;51.770;8.548;2022-10-23T05:00:51;10.77;;;5.03;;
11777;SDS011;5946;51.770;8.548;2022-10-23T05:03:17;9.63;;;5.30;;
11777;SDS011;5946;51.770;8.548;2022-10-23T05:05:43;9.90;;;4.77;;
11777;SDS011;5946;51.770;8.548;2022-10-23T05:08:10;10.43;;;5.17;;
11777;SDS011;5946;51.770;8.548;2022-10-23T05:10:36;9.80;;;4.77;;
11777;SDS011;5946;51.770;8.548;2022-10-23T05:13:01;11.73;;;4.73;;
11777;SDS011;5946;51.770;8.548;2022-10-23T05:15:27;10.77;;;5.17;;
11777;SDS011;5946;51.770;8.548;2022-10-23T05:17:54;7.60;;;5.30;;
11777;SDS011;5946;51.770;8.548;2022-10-23T05:20:30;12.87;;;5.47;;
11777;SDS011;5946;51.770;8.548;2022-10-23T05:22:59;11.87;;;5.23;;
11777;SDS011;5946;51.770;8.548;2022-10-23T05:25:26;8.53;;;5.03;;
11777;SDS011;5946;51.770;8.548;2022-10-23T05:27:53;7.17;;;4.20;;
11777;SDS011;5946;51.770;8.548;2022-10-23T05:30:19;14.17;;;4.80;;
11777;SDS011;5946;51.770;8.548;2022-10-23T05:32:45;10.83;;;4.87;;
11777;SDS011;5946;51.770;8.548;2022-10-23T05:35:12;9.23;;;5.00;;
11777;SDS011;5946;51.770;8.548;2022-10-23T05:37:42;9.40;;;5.10;;
11777;SDS011;5946;51.770;8.548;2022-10-23T05:40:11;9.07;;;5.17;;
11777;SDS011;5946;51.770;8.548;2022-10-23T05:42:37;16.00;;;5.30;;
11777;SDS011;5946;51.770;8.548;2022-10-23T05:45:03;10.80;;;4.83;;
11777;SDS011;5946;51.770;8.548;2022-10-23T05:47:29;9.70;;;4.43;;
11777;SDS011;5946;51.770;8.548;2022-10-23T05:49:55;12.43;;;4.87;;
11777;SDS011;5946;51.770;8.548;2022-10-23T05:52:21;11.83;;;4.80;;
11777;SDS011;5946;51.770;8.548;2022-10-23T05:54:49;9.83;;;4.70;;
11777;SDS011;5946;51.770;8.548;2022-10-23T05:57:15;12.07;;;4.30;;
11777;SDS011;5946;51.770;8.548;2022-10-23T05:59:41;14.63;;;5.23;;
11777;SDS011;5946;51.770;8.548;2022-10-23T06:02:07;8.67;;;4.40;;
11777;SDS011;5946;51.770;8.548;2022-10-23T06:04:33;8.67;;;4.47;;
11777;SDS011;5946;51.770;8.548;2022-10-23T06:06:59;9.07;;;4.53;;
11777;SDS011;5946;51.770;8.548;2022-10-23T06:09:24;9.57;;;4.80;;
11777;SDS011;5946;51.770;8.548;2022-10-23T06:11:50;9.37;;;4.97;;
11777;SDS011;5946;51.770;8.548;2022-10-23T06:14:16;8.67;;;5.30;;
11777;SDS011;5946;51.770;8.548;2022-10-23T06:16:41;12.27;;;5.47;;
11777;SDS011;5946;51.770;8.548;2022-10-23T06:19:10;13.07;;;4.70;;
11777;SDS011;5946;51.770;8.548;2022-10-23T06:21:37;7.93;;;5.23;;
11777;SDS011;5946;51.770;8.548;2022-10-23T06:24:06;11.53;;;5.20;;
11777;SDS011;5946;51.770;8.548;2022-10-23T06:26:32;8.50;;;4.97;;
11777;SDS011;5946;51.770;8.548;2022-10-23T06:28:58;12.77;;;5.43;;
11777;SDS011;5946;51.770;8.548;2022-10-23T06:31:24;13.77;;;5.20;;
11777;SDS011;5946;51.770;8.548;2022-10-23T06:33:55;10.23;;;5.50;;
11777;SDS011;5946;51.770;8.548;2022-10-23T06:36:22;9.77;;;5.43;;
11777;SDS011;5946;51.770;8.548;2022-10-23T06:38:48;9.33;;;5.30;;
11777;SDS011;5946;51.770;8.548;2022-10-23T06:41:18;11.53;;;5.30;;
11777;SDS011;5946;51.770;8.548;2022-10-23T06:43:48;8.10;;;5.40;;
11777;SDS011;5946;51.770;8.548;2022-10-23T06:46:15;9.93;;;5.87;;
11777;SDS011;5946;51.770;8.548;2022-10-23T06:48:41;12.90;;;5.70;;
11777;SDS011;5946;51.770;8.548;2022-10-23T06:51:08;11.50;;;6.33;;
11777;SDS011;5946;51.770;8.548;2022-10-23T06:53:35;13.23;;;5.97;;
11777;SDS011;5946;51.770;8.548;2022-10-23T06:56:02;9.57;;;5.70;;
11777;SDS011;5946;51.770;8.548;2022-10-23T06:58:28;7.63;;;5.23;;
11777;SDS011;5946;51.770;8.548;2022-10-23T07:00:54;13.90;;;6.30;;
11777;SDS011;5946;51.770;8.548;2022-10-23T07:03:20;10.43;;;5.70;;
11777;SDS011;5946;51.770;8.548;2022-10-23T07:05:46;10.33;;;5.40;;
11777;SDS011;5946;51.770;8.548;2022-10-23T07:08:13;13.57;;;5.60;;
11777;SDS011;5946;51.770;8.548;2022-10-23T07:10:39;10.13;;;5.97;;
11777;SDS011;5946;51.770;8.548;2022-10-23T07:13:08;13.60;;;5.07;;
11777;SDS011;5946;51.770;8.548;2022-10-23T07:15:35;10.03;;;4.87;;
11777;SDS011;5946;51.770;8.548;2022-10-23T07:18:01;9.47;;;5.43;;
11777;SDS011;5946;51.770;8.548;2022-10-23T07:20:27;13.60;;;5.47;;
11777;SDS011;5946;51.770;8.548;2022-10-23T07:22:53;7.37;;;5.17;;
11777;SDS011;5946;51.770;8.548;2022-10-23T07:25:20;12.47;;;5.73;;
11777;SDS011;5946;51.770;8.548;2022-10-23T07:27:46;10.30;;;5.47;;
11777;SDS011;5946;51.770;8.548;2022-10-23T07:30:13;12.30;;;5.33;;
11777;SDS011;5946;51.770;8.548;2022-10-23T07:32:39;9.07;;;5.73;;
11777;SDS011;5946;51.770;8.548;2022-10-23T07:35:05;10.63;;;5.20;;
11777;SDS011;5946;51.770;8.548;2022-10-23T07:37:31;11.37;;;5.30;;
11777;SDS011;5946;51.770;8.548;2022-10-23T07:39:57;13.83;;;5.43;;
11777;SDS011;5946;51.770;8.548;2022-10-23T07:42:23;11.77;;;5.23;;
11777;SDS011;5946;51.770;8.548;2022-10-23T07:44:49;6.73;;;4.37;;
11777;SDS011;5946;51.770;8.548;2022-10-23T07:47:15;9.33;;;4.70;;
11777;SDS011;5946;51.770;8.548;2022-10-23T07:49:41;9.17;;;5.00;;
11777;SDS011;5946;51.770;8.548;2022-10-23T07:52:07;6.20;;;4.50;;
11777;SDS011;5946;51.770;8.548;2022-10-23T07:54:33;8.83;;;3.67;;
11777;SDS011;5946;51.770;8.548;2022-10-23T07:56:59;9.60;;;4.40;;
11777;SDS011;5946;51.770;8.548;2022-10-23T07:59:25;7.93;;;3.13;;
11777;SDS011;5946;51.770;8.548;2022-10-23T08:01:51;7.27;;;2.97;;
11777;SDS011;5946;51.770;8.548;2022-10-23T08:04:20;7.27;;;2.90;;
11777;SDS011;5946;51.770;8.548;2022-10-23T08:06:46;10.10;;;3.97;;
11777;SDS011;5946;51.770;8.548;2022-10-23T08:09:12;6.90;;;3.13;;
11777;SDS011;5946;51.770;8.548;2022-10-23T08:11:38;7.40;;;3.00;;
11777;SDS011;5946;51.770;8.548;2022-10-23T08:14:05;6.40;;;2.70;;
11777;SDS011;5946;51.770;8.548;2022-10-23T08:16:32;4.00;;;2.30;;
11777;SDS011;5946;51.770;8.548;2022-10-23T08:18:58;8.43;;;2.70;;
11777;SDS011;5946;51.770;8.548;2022-10-23T08:21:25;5.80;;;2.77;;
11777;SDS011;5946;51.770;8.548;2022-10-23T08:23:54;15.23;;;3.80;;
11777;SDS011;5946;51.770;8.548;2022-10-23T08:26:21;9.67;;;3.83;;
11777;SDS011;5946;51.770;8.548;2022-10-23T08:28:48;10.20;;;3.97;;
11777;SDS011;5946;51.770;8.548;2022-10-23T08:31:15;7.10;;;3.40;;
11777;SDS011;5946;51.770;8.548;2022-10-23T08:33:41;5.73;;;3.30;;
11777;SDS011;5946;51.770;8.548;2022-10-23T08:36:18;8.47;;;3.90;;
11777;SDS011;5946;51.770;8.548;2022-10-23T08:38:44;7.40;;;3.30;;
11777;SDS011;5946;51.770;8.548;2022-10-23T08:41:18;9.17;;;3.10;;
11777;SDS011;5946;51.770;8.548;2022-10-23T08:43:47;7.53;;;2.80;;
11777;SDS011;5946;51.770;8.548;2022-10-23T08:46:16;3.67;;;2.00;;
11777;SDS011;5946;51.770;8.548;2022-10-23T08:48:49;5.40;;;2.07;;
11777;SDS011;5946;51.770;8.548;2022-10-23T08:54:07;3.23;;;2.10;;
11777;SDS011;5946;51.770;8.548;2022-10-23T08:56:36;3.83;;;2.07;;
11777;SDS011;5946;51.770;8.548;2022-10-23T08:59:11;5.80;;;2.00;;
11777;SDS011;5946;51.770;8.548;2022-10-23T09:01:48;4.63;;;2.20;;
11777;SDS011;5946;51.770;8.548;2022-10-23T09:04:19;3.83;;;1.70;;
11777;SDS011;5946;51.770;8.548;2022-10-23T09:07:06;3.50;;;1.57;;
11777;SDS011;5946;51.770;8.548;2022-10-23T09:12:25;4.47;;;2.00;;
11777;SDS011;5946;51.770;8.548;2022-10-23T09:17:31;5.80;;;2.20;;
11777;SDS011;5946;51.770;8.548;2022-10-23T09:20:20;5.03;;;2.10;;
11777;SDS011;5946;51.770;8.548;2022-10-23T09:22:46;5.00;;;1.80;;
11777;SDS011;5946;51.770;8.548;2022-10-23T09:25:18;4.50;;;1.60;;
11777;SDS011;5946;51.770;8.548;2022-10-23T09:27:55;4.97;;;2.00;;
11777;SDS011;5946;51.770;8.548;2022-10-23T09:30:40;9.20;;;2.00;;
11777;SDS011;5946;51.770;8.548;2022-10-23T09:35:49;3.57;;;1.60;;
11777;SDS011;5946;51.770;8.548;2022-10-23T09:38:22;4.10;;;1.70;;
11777;SDS011;5946;51.770;8.548;2022-10-23T09:40:49;2.33;;;1.50;;
11777;SDS011;5946;51.770;8.548;2022-10-23T09:43:17;6.07;;;1.80;;
11777;SDS011;5946;51.770;8.548;2022-10-23T09:45:54;4.10;;;1.90;;
11777;SDS011;5946;51.770;8.548;2022-10-23T09:48:20;10.27;;;2.20;;
11777;SDS011;5946;51.770;8.548;2022-10-23T09:50:47;4.57;;;1.53;;
11777;SDS011;5946;51.770;8.548;2022-10-23T09:53:14;13.87;;;1.77;;
11777;SDS011;5946;51.770;8.548;2022-10-23T09:55:41;5.00;;;1.80;;
11777;SDS011;5946;51.770;8.548;2022-10-23T09:58:18;9.13;;;2.07;;
11777;SDS011;5946;51.770;8.548;2022-10-23T10:00:45;3.33;;;1.60;;
11777;SDS011;5946;51.770;8.548;2022-10-23T10:03:19;3.03;;;1.63;;
11777;SDS011;5946;51.770;8.548;2022-10-23T10:05:51;5.13;;;1.67;;
11777;SDS011;5946;51.770;8.548;2022-10-23T10:08:23;4.23;;;1.87;;
11777;SDS011;5946;51.770;8.548;2022-10-23T10:10:52;4.30;;;1.70;;
11777;SDS011;5946;51.770;8.548;2022-10-23T10:15:59;3.00;;;1.43;;
11777;SDS011;5946;51.770;8.548;2022-10-23T10:18:30;3.13;;;1.77;;
11777;SDS011;5946;51.770;8.548;2022-10-23T10:23:44;3.27;;;1.57;;
11777;SDS011;5946;51.770;8.548;2022-10-23T10:26:14;4.17;;;1.60;;
11777;SDS011;5946;51.770;8.548;2022-10-23T10:31:15;3.10;;;1.40;;
11777;SDS011;5946;51.770;8.548;2022-10-23T10:36:15;6.63;;;1.30;;
11777;SDS011;5946;51.770;8.548;2022-10-23T10:41:32;2.50;;;1.50;;
11777;SDS011;5946;51.770;8.548;2022-10-23T10:46:54;3.10;;;1.80;;
11777;SDS011;5946;51.770;8.548;2022-10-23T10:49:23;6.57;;;1.37;;
11777;SDS011;5946;51.770;8.548;2022-10-23T10:57:23;3.10;;;1.48;;
11777;SDS011;5946;51.770;8.548;2022-10-23T10:59:52;2.83;;;1.70;;
11777;SDS011;5946;51.770;8.548;2022-10-23T11:02:44;11.55;;;1.50;;
11777;SDS011;5946;51.770;8.548;2022-10-23T11:05:13;5.37;;;1.70;;
11777;SDS011;5946;51.770;8.548;2022-10-23T11:07:58;2.50;;;1.43;;
11777;SDS011;5946;51.770;8.548;2022-10-23T11:10:24;2.60;;;1.60;;
11777;SDS011;5946;51.770;8.548;2022-10-23T11:12:51;4.32;;;2.08;;
11777;SDS011;5946;51.770;8.548;2022-10-23T11:15:22;2.37;;;1.50;;
11777;SDS011;5946;51.770;8.548;2022-10-23T11:17:52;7.55;;;1.98;;
11777;SDS011;5946;51.770;8.548;2022-10-23T11:25:25;1.60;;;1.40;;
11777;SDS011;5946;51.770;8.548;2022-10-23T11:28:20;12.10;;;1.40;;
11777;SDS011;5946;51.770;8.548;2022-10-23T11:36:42;5.55;;;1.58;;
11777;SDS011;5946;51.770;8.548;2022-10-23T11:39:16;5.10;;;1.70;;
11777;SDS011;5946;51.770;8.548;2022-10-23T11:42:26;6.10;;;1.55;;
11777;SDS011;5946;51.770;8.548;2022-10-23T11:44:41;3.97;;;1.45;;
11777;SDS011;5946;51.770;8.548;2022-10-23T11:52:34;2.33;;;1.38;;
11777;SDS011;5946;51.770;8.548;2022-10-23T11:55:11;3.05;;;1.35;;
11777;SDS011;5946;51.770;8.548;2022-10-23T11:57:40;4.68;;;1.80;;
11777;SDS011;5946;51.770;8.548;2022-10-23T12:00:22;7.13;;;1.60;;
11777;SDS011;5946;51.770;8.548;2022-10-23T12:02:49;10.57;;;1.50;;
11777;SDS011;5946;51.770;8.548;2022-10-23T12:05:28;2.95;;;1.35;;
11777;SDS011;5946;51.770;8.548;2022-10-23T12:07:59;10.50;;;1.73;;
11777;SDS011;5946;51.770;8.548;2022-10-23T12:10:30;5.07;;;1.30;;
11777;SDS011;5946;51.770;8.548;2022-10-23T12:13:03;2.95;;;1.50;;
11777;SDS011;5946;51.770;8.548;2022-10-23T12:15:29;2.03;;;1.10;;
11777;SDS011;5946;51.770;8.548;2022-10-23T12:18:15;3.73;;;1.70;;
11777;SDS011;5946;51.770;8.548;2022-10-23T12:33:27;5.60;;;1.47;;
11777;SDS011;5946;51.770;8.548;2022-10-23T12:36:02;5.97;;;1.60;;
11777;SDS011;5946;51.770;8.548;2022-10-23T12:38:30;3.57;;;1.40;;
11777;SDS011;5946;51.770;8.548;2022-10-23T12:43:29;8.70;;;1.43;;
11777;SDS011;5946;51.770;8.548;2022-10-23T12:45:57;6.00;;;1.50;;
11777;SDS011;5946;51.770;8.548;2022-10-23T12:48:25;3.17;;;1.30;;
11777;SDS011;5946;51.770;8.548;2022-10-23T12:50:52;6.87;;;1.70;;
11777;SDS011;5946;51.770;8.548;2022-10-23T12:53:19;9.97;;;1.40;;
11777;SDS011;5946;51.770;8.548;2022-10-23T12:55:56;6.30;;;1.80;;
11777;SDS011;5946;51.770;8.548;2022-10-23T12:58:27;2.37;;;1.60;;
11777;SDS011;5946;51.770;8.548;2022-10-23T13:01:04;5.20;;;1.70;;
11777;SDS011;5946;51.770;8.548;2022-10-23T13:03:31;4.93;;;1.50;;
11777;SDS011;5946;51.770;8.548;2022-10-23T13:05:58;4.63;;;1.40;;
11777;SDS011;5946;51.770;8.548;2022-10-23T13:08:29;2.73;;;1.30;;
11777;SDS011;5946;51.770;8.548;2022-10-23T13:10:57;2.20;;;1.17;;
11777;SDS011;5946;51.770;8.548;2022-10-23T13:13:23;3.00;;;1.37;;
11777;SDS011;5946;51.770;8.548;2022-10-23T13:15:50;2.00;;;1.13;;
11777;SDS011;5946;51.770;8.548;2022-10-23T13:18:16;5.60;;;1.63;;
11777;SDS011;5946;51.770;8.548;2022-10-23T13:25:57;4.03;;;1.57;;
11777;SDS011;5946;51.770;8.548;2022-10-23T13:28:24;2.90;;;1.40;;
11777;SDS011;5946;51.770;8.548;2022-10-23T13:30:59;2.90;;;1.50;;
11777;SDS011;5946;51.770;8.548;2022-10-23T13:33:30;9.07;;;1.90;;
11777;SDS011;5946;51.770;8.548;2022-10-23T13:35:57;6.83;;;1.37;;
11777;SDS011;5946;51.770;8.548;2022-10-23T13:38:28;4.30;;;1.50;;
11777;SDS011;5946;51.770;8.548;2022-10-23T13:40:55;3.00;;;1.40;;
11777;SDS011;5946;51.770;8.548;2022-10-23T13:43:21;3.97;;;1.37;;
11777;SDS011;5946;51.770;8.548;2022-10-23T13:45:49;2.50;;;1.30;;
11777;SDS011;5946;51.770;8.548;2022-10-23T13:48:15;3.57;;;1.93;;
11777;SDS011;5946;51.770;8.548;2022-10-23T13:50:42;5.20;;;2.13;;
11777;SDS011;5946;51.770;8.548;2022-10-23T13:53:11;4.77;;;2.47;;
11777;SDS011;5946;51.770;8.548;2022-10-23T13:55:38;2.93;;;1.53;;
11777;SDS011;5946;51.770;8.548;2022-10-23T13:58:04;4.27;;;1.80;;
11777;SDS011;5946;51.770;8.548;2022-10-23T14:00:30;4.67;;;1.70;;
11777;SDS011;5946;51.770;8.548;2022-10-23T14:02:56;3.13;;;1.57;;
11777;SDS011;5946;51.770;8.548;2022-10-23T14:05:22;1.70;;;1.30;;
11777;SDS011;5946;51.770;8.548;2022-10-23T14:07:48;2.60;;;1.60;;
11777;SDS011;5946;51.770;8.548;2022-10-23T14:10:14;3.33;;;1.53;;
11777;SDS011;5946;51.770;8.548;2022-10-23T14:12:41;5.07;;;1.50;;
11777;SDS011;5946;51.770;8.548;2022-10-23T14:15:07;7.03;;;1.63;;
11777;SDS011;5946;51.770;8.548;2022-10-23T14:17:34;2.70;;;1.50;;
11777;SDS011;5946;51.770;8.548;2022-10-23T14:20:00;8.90;;;1.70;;
11777;SDS011;5946;51.770;8.548;2022-10-23T14:22:26;4.70;;;1.83;;
11777;SDS011;5946;51.770;8.548;2022-10-23T14:24:52;2.43;;;1.80;;
11777;SDS011;5946;51.770;8.548;2022-10-23T14:27:18;3.03;;;2.13;;
11777;SDS011;5946;51.770;8.548;2022-10-23T14:29:44;10.07;;;2.20;;
11777;SDS011;5946;51.770;8.548;2022-10-23T14:32:10;5.60;;;1.70;;
11777;SDS011;5946;51.770;8.548;2022-10-23T14:34:37;4.20;;;2.60;;
11777;SDS011;5946;51.770;8.548;2022-10-23T14:37:05;3.80;;;1.77;;
11777;SDS011;5946;51.770;8.548;2022-10-23T14:39:31;6.97;;;2.17;;
11777;SDS011;5946;51.770;8.548;2022-10-23T14:41:57;8.90;;;2.87;;
11777;SDS011;5946;51.770;8.548;2022-10-23T14:44:23;3.80;;;1.80;;
11777;SDS011;5946;51.770;8.548;2022-10-23T14:46:49;5.23;;;1.50;;
11777;SDS011;5946;51.770;8.548;2022-10-23T14:49:16;3.80;;;1.80;;
11777;SDS011;5946;51.770;8.548;2022-10-23T14:51:42;4.17;;;1.80;;
11777;SDS011;5946;51.770;8.548;2022-10-23T14:54:08;3.67;;;2.47;;
11777;SDS011;5946;51.770;8.548;2022-10-23T14:56:37;6.53;;;2.47;;
11777;SDS011;5946;51.770;8.548;2022-10-23T14:59:04;7.37;;;3.17;;
11777;SDS011;5946;51.770;8.548;2022-10-23T15:01:31;5.13;;;2.50;;
11777;SDS011;5946;51.770;8.548;2022-10-23T15:03:59;6.60;;;3.30;;
11777;SDS011;5946;51.770;8.548;2022-10-23T15:06:24;5.30;;;2.90;;
11777;SDS011;5946;51.770;8.548;2022-10-23T15:08:50;5.17;;;2.40;;
11777;SDS011;5946;51.770;8.548;2022-10-23T15:11:19;7.57;;;2.40;;
11777;SDS011;5946;51.770;8.548;2022-10-23T15:13:45;6.57;;;2.13;;
11777;SDS011;5946;51.770;8.548;2022-10-23T15:16:11;7.47;;;2.53;;
11777;SDS011;5946;51.770;8.548;2022-10-23T15:18:37;7.70;;;2.07;;
11777;SDS011;5946;51.770;8.548;2022-10-23T15:21:03;3.37;;;2.10;;
11777;SDS011;5946;51.770;8.548;2022-10-23T15:23:31;5.23;;;1.77;;
11777;SDS011;5946;51.770;8.548;2022-10-23T15:25:59;6.63;;;1.90;;
11777;SDS011;5946;51.770;8.548;2022-10-23T15:28:26;2.13;;;1.60;;
11777;SDS011;5946;51.770;8.548;2022-10-23T15:30:52;4.67;;;1.40;;
11777;SDS011;5946;51.770;8.548;2022-10-23T15:33:18;2.50;;;1.70;;
11777;SDS011;5946;51.770;8.548;2022-10-23T15:35:45;3.93;;;1.73;;
11777;SDS011;5946;51.770;8.548;2022-10-23T15:38:11;6.73;;;2.00;;
11777;SDS011;5946;51.770;8.548;2022-10-23T15:40:37;5.43;;;1.90;;
11777;SDS011;5946;51.770;8.548;2022-10-23T15:43:03;7.53;;;2.40;;
11777;SDS011;5946;51.770;8.548;2022-10-23T15:45:29;4.07;;;2.13;;
11777;SDS011;5946;51.770;8.548;2022-10-23T15:47:55;6.17;;;1.90;;
11777;SDS011;5946;51.770;8.548;2022-10-23T15:50:21;5.13;;;2.20;;
11777;SDS011;5946;51.770;8.548;2022-10-23T15:52:47;5.10;;;2.43;;
11777;SDS011;5946;51.770;8.548;2022-10-23T15:55:13;7.47;;;2.83;;
11777;SDS011;5946;51.770;8.548;2022-10-23T15:57:39;5.73;;;2.70;;
11777;SDS011;5946;51.770;8.548;2022-10-23T16:00:05;9.90;;;2.37;;
11777;SDS011;5946;51.770;8.548;2022-10-23T16:02:34;5.50;;;2.30;;
11777;SDS011;5946;51.770;8.548;2022-10-23T16:05:00;6.53;;;2.43;;
11777;SDS011;5946;51.770;8.548;2022-10-23T16:07:26;7.50;;;2.03;;
11777;SDS011;5946;51.770;8.548;2022-10-23T16:09:55;7.43;;;2.23;;
11777;SDS011;5946;51.770;8.548;2022-10-23T16:12:21;4.53;;;2.33;;
11777;SDS011;5946;51.770;8.548;2022-10-23T16:14:47;8.33;;;1.80;;
11777;SDS011;5946;51.770;8.548;2022-10-23T16:17:13;4.80;;;2.00;;
11777;SDS011;5946;51.770;8.548;2022-10-23T16:19:38;6.50;;;2.37;;
11777;SDS011;5946;51.770;8.548;2022-10-23T16:22:04;8.57;;;2.57;;
11777;SDS011;5946;51.770;8.548;2022-10-23T16:24:31;4.93;;;2.60;;
11777;SDS011;5946;51.770;8.548;2022-10-23T16:26:57;5.77;;;3.40;;
11777;SDS011;5946;51.770;8.548;2022-10-23T16:29:24;16.40;;;10.97;;
11777;SDS011;5946;51.770;8.548;2022-10-23T16:31:51;17.30;;;9.87;;
11777;SDS011;5946;51.770;8.548;2022-10-23T16:34:17;12.53;;;7.53;;